Time;durP1;ratioP1;P1;durP2;ratioP2;P2;SDS_P1;SDS_P2;PMS_P1;PMS_P2;Temp;Humidity;BMP_temperature;BMP_pressure;BME280_temperature;BME280_humidity;BME280_pressure;Samples;Min_cycle;Max_cycle;Signal;HPM_P1;HPM_P2
2021/11/11 00:00:47;;;;;;;17.27;8.57;;;0.30;99.90;;;1.05;100.00;98868.66;5057089;28;20998;-79
2021/11/11 00:03:16;;;;;;;18.00;8.80;;;0.20;99.90;;;1.04;100.00;98862.69;5061811;28;20481;-78
2021/11/11 00:05:46;;;;;;;21.20;9.10;;;0.20;99.90;;;1.10;100.00;98867.41;5056157;28;20467;-79
2021/11/11 00:08:15;;;;;;;17.87;9.30;;;0.30;99.90;;;1.10;100.00;98867.41;5050398;28;20553;-79
2021/11/11 00:10:43;;;;;;;17.73;8.00;;;0.30;99.90;;;1.11;100.00;98858.75;5056994;28;21022;-79
2021/11/11 00:13:12;;;;;;;16.27;8.53;;;0.20;99.90;;;1.10;100.00;98867.41;5051564;28;20481;-79
2021/11/11 00:15:40;;;;;;;14.63;8.93;;;0.20;99.90;;;1.09;100.00;98870.91;5058214;28;20492;-79
2021/11/11 00:18:09;;;;;;;18.07;8.70;;;0.30;99.90;;;1.08;100.00;98865.88;5059859;28;20462;-79
2021/11/11 00:20:38;;;;;;;18.37;9.70;;;0.20;99.90;;;1.08;100.00;98858.97;5053015;28;20921;-79
2021/11/11 00:23:07;;;;;;;17.13;8.43;;;0.20;99.90;;;1.01;100.00;98855.16;5057852;28;20488;-79
2021/11/11 00:25:37;;;;;;;16.90;8.77;;;0.00;99.90;;;0.94;100.00;98841.91;5054768;28;20481;-79
2021/11/11 00:28:06;;;;;;;21.47;9.13;;;0.00;99.90;;;0.97;100.00;98835.75;5055454;28;20580;-79
2021/11/11 00:30:35;;;;;;;17.83;9.83;;;0.00;99.90;;;1.01;100.00;98835.41;5052147;28;20535;-79
2021/11/11 00:33:04;;;;;;;18.33;8.07;;;0.10;99.90;;;1.05;100.00;98833.44;5054369;28;20935;-79
2021/11/11 00:35:33;;;;;;;14.27;8.57;;;0.10;99.90;;;1.03;100.00;98830.16;5049786;28;20508;-79
2021/11/11 00:38:02;;;;;;;14.87;7.90;;;0.10;99.90;;;1.05;100.00;98823.13;5049006;28;20528;-79
2021/11/11 00:40:39;;;;;;;14.67;8.60;;;0.10;99.90;;;1.05;100.00;98828.28;5052633;28;21017;-79
2021/11/11 00:43:08;;;;;;;25.57;9.20;;;0.10;99.90;;;1.05;100.00;98827.44;5055950;28;20476;-79
2021/11/11 00:45:38;;;;;;;22.00;9.23;;;0.20;99.90;;;1.02;100.00;98833.66;5053507;28;20524;-79
2021/11/11 00:48:07;;;;;;;16.30;8.40;;;0.10;99.90;;;0.97;100.00;98830.59;5054584;28;20494;-79
2021/11/11 00:50:37;;;;;;;22.20;10.30;;;0.00;99.90;;;1.01;100.00;98829.41;5051522;28;20659;-79
2021/11/11 00:53:07;;;;;;;18.30;9.47;;;0.10;99.90;;;1.02;100.00;98826.75;5053526;28;20559;-79
2021/11/11 00:55:37;;;;;;;18.23;9.33;;;0.10;99.90;;;1.01;100.00;98829.41;5050695;28;20461;-79
2021/11/11 00:58:07;;;;;;;14.70;7.83;;;0.10;99.90;;;0.96;100.00;98836.66;5056723;28;20504;-79
2021/11/11 01:00:38;;;;;;;22.40;8.80;;;0.10;99.90;;;0.94;100.00;98828.19;5053917;28;20462;-78
2021/11/11 01:03:07;;;;;;;23.30;9.33;;;0.10;99.90;;;0.95;100.00;98838.41;5052819;28;20949;-79
2021/11/11 01:05:37;;;;;;;36.53;10.17;;;0.10;99.90;;;0.98;100.00;98830.47;5053607;28;20472;-79
2021/11/11 01:08:07;;;;;;;16.40;8.93;;;0.10;99.90;;;0.99;100.00;98832.13;5044287;28;20487;-79
2021/11/11 01:10:36;;;;;;;17.03;9.60;;;0.10;99.90;;;1.00;100.00;98832.94;5057382;28;20549;-78
2021/11/11 01:13:06;;;;;;;16.50;8.67;;;0.10;99.90;;;0.96;100.00;98828.94;5060341;28;20530;-79
2021/11/11 01:15:35;;;;;;;16.70;9.40;;;0.10;99.90;;;0.90;100.00;98829.38;5053204;28;20490;-79
2021/11/11 01:18:06;;;;;;;19.13;10.17;;;-0.10;99.90;;;0.85;100.00;98834.00;5055958;28;20469;-79
2021/11/11 01:20:35;;;;;;;19.43;9.33;;;0.00;99.90;;;0.86;100.00;98835.66;5060160;28;20438;-79
2021/11/11 01:23:04;;;;;;;15.77;8.30;;;0.00;99.90;;;0.88;100.00;98836.38;5061182;28;20525;-79
2021/11/11 01:25:37;;;;;;;20.80;9.47;;;0.00;99.90;;;0.82;100.00;98837.63;5057337;28;20450;-79
2021/11/11 01:28:09;;;;;;;19.30;9.20;;;-0.10;99.90;;;0.82;100.00;98837.63;5054759;28;20520;-79
2021/11/11 01:30:41;;;;;;;15.47;9.10;;;0.00;99.90;;;0.80;100.00;98843.81;5055590;28;20458;-78
2021/11/11 01:33:11;;;;;;;18.87;9.30;;;-0.20;99.90;;;0.79;100.00;98842.16;5061255;28;20535;-79
2021/11/11 01:35:40;;;;;;;20.33;9.00;;;-0.20;99.90;;;0.71;100.00;98842.69;5059807;28;20794;-79
2021/11/11 01:38:09;;;;;;;12.27;8.17;;;-0.30;99.90;;;0.74;100.00;98844.22;5050999;28;20458;-79
2021/11/11 01:40:38;;;;;;;15.70;7.93;;;-0.20;99.90;;;0.71;100.00;98841.84;5051509;28;20460;-79
2021/11/11 01:43:09;;;;;;;16.90;8.27;;;-0.20;99.90;;;0.65;100.00;98847.44;5060314;28;20464;-79
2021/11/11 01:45:41;;;;;;;17.83;8.83;;;-0.20;99.90;;;0.65;100.00;98839.72;5063862;28;20971;-79
2021/11/11 01:48:14;;;;;;;29.97;7.53;;;-0.30;99.90;;;0.66;100.00;98841.38;5060390;28;21118;-78
2021/11/11 01:50:44;;;;;;;14.27;7.57;;;-0.30;99.90;;;0.70;100.00;98833.31;5058317;28;20868;-79
2021/11/11 01:53:15;;;;;;;15.27;8.20;;;-0.20;99.90;;;0.74;100.00;98833.91;5057950;28;20491;-79
2021/11/11 01:55:47;;;;;;;18.73;7.57;;;-0.20;99.90;;;0.75;100.00;98823.53;5052325;28;20461;-78
2021/11/11 01:58:18;;;;;;;16.20;8.03;;;-0.10;99.90;;;0.77;100.00;98821.66;5052467;28;20999;-79
2021/11/11 02:00:50;;;;;;;14.73;8.07;;;-0.10;99.90;;;0.81;100.00;98830.00;5062996;28;20921;-79
2021/11/11 02:03:19;;;;;;;16.07;7.30;;;0.00;99.90;;;0.80;100.00;98828.38;5059239;28;20485;-79
2021/11/11 02:05:49;;;;;;;20.90;8.23;;;0.00;99.90;;;0.79;100.00;98827.53;5061477;28;20488;-78
2021/11/11 02:08:18;;;;;;;15.13;7.87;;;-0.10;99.90;;;0.71;100.00;98829.00;5057057;28;20890;-79
2021/11/11 02:10:47;;;;;;;14.50;7.57;;;-0.20;99.90;;;0.65;100.00;98832.81;5056474;28;20534;-79
2021/11/11 02:13:17;;;;;;;15.23;8.10;;;-0.30;99.90;;;0.65;100.00;98839.72;5062205;28;20930;-79
2021/11/11 02:15:46;;;;;;;15.57;8.90;;;-0.30;99.90;;;0.70;100.00;98827.34;5054048;28;20462;-78
2021/11/11 02:18:14;;;;;;;14.03;8.40;;;-0.20;99.90;;;0.75;100.00;98835.56;5055578;28;20906;-79
2021/11/11 02:20:46;;;;;;;17.60;8.57;;;-0.10;99.90;;;0.74;100.00;98823.63;5054228;28;20450;-79
2021/11/11 02:23:19;;;;;;;18.27;8.70;;;-0.10;99.90;;;0.68;100.00;98830.03;5053323;28;20795;-79
2021/11/11 02:25:48;;;;;;;14.73;8.20;;;-0.30;99.90;;;0.73;100.00;98832.31;5062331;28;20474;-79
2021/11/11 02:28:21;;;;;;;17.30;9.37;;;-0.20;99.90;;;0.72;100.00;98835.78;5051407;28;20474;-79
2021/11/11 02:30:54;;;;;;;19.83;9.43;;;-0.10;99.90;;;0.74;100.00;98833.91;5055923;28;20560;-79
2021/11/11 02:33:26;;;;;;;22.37;9.57;;;0.00;99.90;;;0.78;100.00;98841.34;5053473;28;20537;-79
2021/11/11 02:35:58;;;;;;;20.63;8.63;;;0.00;99.90;;;0.76;100.00;98843.19;5059760;28;20494;-79
2021/11/11 02:38:26;;;;;;;16.00;8.93;;;-0.10;99.90;;;0.73;100.00;98842.59;5053326;28;20462;-79
2021/11/11 02:40:55;;;;;;;21.07;9.17;;;-0.10;99.90;;;0.76;100.00;98842.38;5066069;28;20457;-79
2021/11/11 02:43:28;;;;;;;18.47;8.30;;;-0.10;99.90;;;0.75;100.00;98846.69;5058011;28;20893;-79
2021/11/11 02:45:57;;;;;;;13.10;8.03;;;-0.20;99.90;;;0.70;100.00;98838.47;5055405;28;20526;-79
2021/11/11 02:48:25;;;;;;;20.47;8.67;;;-0.20;99.90;;;0.67;100.00;98835.28;5063214;28;20571;-79
2021/11/11 02:50:56;;;;;;;15.10;8.37;;;-0.30;99.90;;;0.71;100.00;98837.53;5064195;28;20466;-78
2021/11/11 02:53:25;;;;;;;22.63;8.17;;;-0.20;99.90;;;0.72;100.00;98826.31;5058201;28;20495;-79
2021/11/11 02:55:54;;;;;;;16.70;8.53;;;-0.10;99.90;;;0.73;100.00;98827.94;5061547;28;20492;-79
2021/11/11 02:58:24;;;;;;;16.80;8.53;;;-0.10;99.90;;;0.73;100.00;98832.31;5056636;28;20539;-79
2021/11/11 03:00:59;;;;;;;14.37;8.83;;;0.00;99.90;;;0.71;100.00;98826.41;5058953;28;20488;-79
2021/11/11 03:03:28;;;;;;;17.13;9.70;;;-0.10;99.90;;;0.72;100.00;98828.06;5060169;28;20490;-79
2021/11/11 03:05:59;;;;;;;22.47;8.93;;;-0.10;99.90;;;0.65;100.00;98824.28;5061303;28;20904;-79
2021/11/11 03:08:27;;;;;;;14.80;7.45;;;-0.20;99.90;;;0.66;100.00;98816.44;5062857;28;20457;-79
2021/11/11 03:10:57;;;;;;;15.03;8.00;;;-0.20;99.90;;;0.65;100.00;98824.28;5060274;28;20506;-79
2021/11/11 03:13:26;;;;;;;18.00;9.00;;;-0.30;99.90;;;0.59;100.00;98829.84;5059234;28;20921;-79
2021/11/11 03:15:58;;;;;;;15.70;8.03;;;-0.30;99.90;;;0.53;100.00;98820.78;5059464;28;20457;-79
2021/11/11 03:18:27;;;;;;;17.07;8.40;;;-0.40;99.90;;;0.58;100.00;98833.34;5063894;28;20556;-79
2021/11/11 03:20:55;;;;;;;16.27;8.00;;;-0.40;99.90;;;0.59;100.00;98829.84;5057246;28;21012;-80
2021/11/11 03:23:25;;;;;;;13.77;7.90;;;-0.30;99.90;;;0.56;100.00;98830.03;5060417;28;20518;-79
2021/11/11 03:25:54;;;;;;;17.13;8.73;;;-0.20;99.90;;;0.56;100.00;98828.28;5064704;28;20510;-78
2021/11/11 03:28:22;;;;;;;13.10;7.40;;;-0.30;99.90;;;0.43;100.00;98830.88;5063078;28;20973;-79
2021/11/11 03:30:51;;;;;;;13.37;7.23;;;-0.50;99.90;;;0.45;100.00;98833.38;5061760;28;20523;-79
2021/11/11 03:33:20;;;;;;;17.37;8.60;;;-0.50;99.90;;;0.45;100.00;98836.75;5065038;28;20488;-79
2021/11/11 03:35:48;;;;;;;10.40;6.93;;;-0.40;99.90;;;0.46;100.00;98840.97;5062028;28;20514;-78
2021/11/11 03:38:18;;;;;;;17.03;7.50;;;-0.40;99.90;;;0.41;100.00;98848.19;5064412;28;20440;-79
2021/11/11 03:40:48;;;;;;;17.60;7.90;;;-0.50;99.90;;;0.40;100.00;98846.53;5064447;28;20548;-79
2021/11/11 03:43:17;;;;;;;12.53;6.63;;;-0.50;99.90;;;0.42;100.00;98833.56;5054263;28;20940;-79
2021/11/11 03:45:45;;;;;;;14.70;7.00;;;-0.50;99.90;;;0.44;100.00;98842.00;5054997;28;20464;-78
2021/11/11 03:48:14;;;;;;;18.73;6.90;;;-0.50;99.90;;;0.43;100.00;98836.03;5060674;28;20582;-79
2021/11/11 03:50:42;;;;;;;14.37;7.50;;;-0.40;99.90;;;0.45;100.00;98823.06;5057889;28;20485;-79
2021/11/11 03:53:11;;;;;;;11.47;6.67;;;-0.40;99.90;;;0.45;100.00;98829.03;5051618;28;20476;-79
2021/11/11 03:55:39;;;;;;;10.43;6.43;;;-0.40;99.90;;;0.45;100.00;98829.03;5054673;28;20465;-78
2021/11/11 03:58:15;;;;;;;14.90;7.43;;;-0.40;99.90;;;0.46;100.00;98820.38;5057576;28;21011;-78
2021/11/11 04:00:45;;;;;;;17.43;7.20;;;-0.40;99.90;;;0.48;100.00;98817.72;5057353;28;20966;-78
2021/11/11 04:03:13;;;;;;;11.23;5.90;;;-0.30;99.90;;;0.48;100.00;98818.56;5057042;28;20478;-78
2021/11/11 04:05:42;;;;;;;13.40;6.20;;;-0.30;99.90;;;0.46;100.00;98820.38;5053569;28;20462;-78
2021/11/11 04:08:11;;;;;;;10.03;6.13;;;-0.10;99.90;;;0.48;100.00;98813.41;5057808;28;21111;-78
2021/11/11 04:10:39;;;;;;;10.50;5.80;;;-0.20;99.90;;;0.47;100.00;98818.63;5055004;28;20528;-78
2021/11/11 04:13:09;;;;;;;12.93;6.37;;;-0.20;99.90;;;0.47;100.00;98821.22;5058235;28;20496;-78
2021/11/11 04:15:38;;;;;;;9.93;5.43;;;-0.20;99.90;;;0.47;100.00;98816.06;5054188;28;20954;-78
2021/11/11 04:18:06;;;;;;;9.83;6.20;;;-0.30;99.90;;;0.49;100.00;98820.16;5057791;28;20800;-77
2021/11/11 04:20:35;;;;;;;15.27;6.30;;;-0.30;99.90;;;0.48;100.00;98831.41;5058441;28;20449;-78
2021/11/11 04:23:03;;;;;;;12.20;6.70;;;-0.30;99.90;;;0.47;100.00;98831.50;5058096;28;20521;-78
2021/11/11 04:25:37;;;;;;;10.07;6.17;;;-0.30;99.90;;;0.48;100.00;98828.84;5060973;28;21095;-78
2021/11/11 04:28:09;;;;;;;10.73;6.10;;;-0.20;99.90;;;0.47;100.00;98832.31;5055004;28;20891;-78
2021/11/11 04:30:40;;;;;;;10.07;5.77;;;-0.20;99.90;;;0.45;100.00;98829.03;5063755;28;20493;-78
2021/11/11 04:33:10;;;;;;;10.20;5.87;;;-0.20;99.90;;;0.46;100.00;98835.81;5056201;28;20867;-78
2021/11/11 04:35:41;;;;;;;10.97;6.40;;;-0.10;99.90;;;0.43;100.00;98833.47;5053328;28;20460;-78
2021/11/11 04:38:16;;;;;;;8.27;6.00;;;-0.30;99.90;;;0.42;100.00;98833.56;5051371;28;20461;-78
2021/11/11 04:43:54;;;;;;;8.30;5.70;;;-0.20;99.90;;;0.39;100.00;98836.34;4996877;28;20478;-78
2021/11/11 04:49:47;;;;;;;8.30;5.40;;;-0.30;99.90;;;0.46;100.00;98840.97;4985055;28;20483;-77
2021/11/11 04:52:28;;;;;;;11.50;6.03;;;-0.30;99.90;;;0.47;100.00;98842.63;4984089;28;20469;-78
2021/11/11 05:03:33;;;;;;;5.50;4.60;;;-0.30;99.90;;;0.41;100.00;98848.19;5105002;27;20581;-78
2021/11/11 05:06:03;;;;;;;13.77;7.03;;;-0.30;99.90;;;0.39;100.00;98850.03;5070496;28;20447;-80
2021/11/11 05:08:32;;;;;;;11.93;6.30;;;-0.30;99.90;;;0.39;100.00;98844.88;5078522;28;20201;-80
2021/11/11 05:11:01;;;;;;;16.50;6.50;;;-0.30;99.90;;;0.41;100.00;98848.19;5074552;28;20901;-81
2021/11/11 05:13:30;;;;;;;15.33;6.17;;;-0.30;99.90;;;0.40;100.00;98848.28;5072379;28;20452;-80
2021/11/11 05:15:59;;;;;;;10.60;6.60;;;-0.40;99.90;;;0.38;100.00;98847.56;5071177;28;20457;-81
2021/11/11 05:18:29;;;;;;;12.17;6.70;;;-0.50;99.90;;;0.34;100.00;98856.41;5077329;28;20513;-80
2021/11/11 05:21:01;;;;;;;9.83;5.90;;;-0.50;99.90;;;0.32;100.00;98866.78;5073818;28;20451;-80
2021/11/11 05:23:30;;;;;;;11.10;5.77;;;-0.50;99.90;;;0.32;100.00;98868.53;5070909;28;20472;-80
2021/11/11 05:25:59;;;;;;;9.23;5.13;;;-0.40;99.90;;;0.31;100.00;98867.72;5072120;28;20794;-77
2021/11/11 05:28:27;;;;;;;8.13;5.50;;;-0.50;99.90;;;0.30;100.00;98875.53;5067487;28;20483;-79
2021/11/11 05:30:56;;;;;;;11.97;6.10;;;-0.40;99.90;;;0.29;100.00;98861.84;5072928;28;20951;-78
2021/11/11 05:33:24;;;;;;;10.73;5.97;;;-0.40;99.90;;;0.31;100.00;98870.28;5069952;28;20802;-79
2021/11/11 05:35:54;;;;;;;15.47;6.40;;;-0.40;99.90;;;0.31;100.00;98872.84;5074592;28;20510;-78
2021/11/11 05:38:23;;;;;;;10.60;5.97;;;-0.40;99.90;;;0.27;100.00;98862.88;5068277;28;20514;-77
2021/11/11 05:40:51;;;;;;;9.77;5.50;;;-0.40;99.90;;;0.25;100.00;98867.28;5083375;28;20521;-77
2021/11/11 05:43:22;;;;;;;9.50;5.77;;;-0.50;99.90;;;0.24;100.00;98873.38;5070375;28;20586;-77
2021/11/11 05:45:51;;;;;;;9.10;5.80;;;-0.50;99.90;;;0.19;100.00;98868.53;5071371;28;20479;-77
2021/11/11 05:48:20;;;;;;;9.97;6.27;;;-0.30;99.90;;;0.11;100.00;98869.97;5078511;28;20511;-77
2021/11/11 05:50:48;;;;;;;12.53;6.50;;;-0.60;99.90;;;0.09;100.00;98870.06;5081114;28;20439;-76
2021/11/11 05:53:18;;;;;;;9.90;6.00;;;-0.70;99.90;;;0.08;100.00;98871.00;5083979;28;20473;-77
2021/11/11 05:55:46;;;;;;;8.67;5.77;;;-0.60;99.90;;;0.10;100.00;98874.31;5084430;28;20514;-77
2021/11/11 05:58:15;;;;;;;12.67;6.30;;;-0.70;99.90;;;0.07;100.00;98878.81;5082782;28;20455;-77
2021/11/11 06:00:44;;;;;;;9.47;5.80;;;-0.60;99.90;;;0.00;100.00;98878.41;5076671;28;20529;-77
2021/11/11 06:03:13;;;;;;;19.93;5.70;;;-0.70;99.90;;;0.00;100.00;98880.97;5083148;28;20509;-77
2021/11/11 06:05:43;;;;;;;9.40;6.33;;;-0.80;99.90;;;-0.01;100.00;98876.75;5087645;28;20578;-77
2021/11/11 06:08:12;;;;;;;9.20;5.90;;;-0.80;99.90;;;-0.09;100.00;98869.53;5090187;28;20503;-77
2021/11/11 06:10:41;;;;;;;11.33;6.20;;;-0.80;99.90;;;-0.12;100.00;98864.59;5078306;28;20951;-77
2021/11/11 06:13:10;;;;;;;9.50;5.57;;;-0.90;99.90;;;-0.11;100.00;98863.69;5074796;28;20445;-77
2021/11/11 06:15:39;;;;;;;12.73;6.60;;;-0.90;99.90;;;-0.09;100.00;98868.69;5071146;28;20487;-77
2021/11/11 06:18:10;;;;;;;12.67;6.07;;;-0.90;99.90;;;-0.10;100.00;98870.44;5069755;28;20452;-77
2021/11/11 06:20:43;;;;;;;9.87;6.23;;;-0.90;99.90;;;-0.15;100.00;98869.94;5072828;28;20452;-77
2021/11/11 06:23:13;;;;;;;13.23;5.87;;;-1.00;99.90;;;-0.17;100.00;98876.06;5074866;28;20523;-77
2021/11/11 06:25:43;;;;;;;10.23;5.57;;;-1.00;99.90;;;-0.13;100.00;98872.41;5067543;28;20456;-77
2021/11/11 06:28:11;;;;;;;7.87;5.30;;;-1.00;99.90;;;-0.12;100.00;98880.00;5067935;28;20448;-77
2021/11/11 06:30:40;;;;;;;10.70;6.20;;;-1.00;99.90;;;-0.10;100.00;98879.91;5064451;28;20460;-77
2021/11/11 06:33:08;;;;;;;8.27;5.60;;;-0.90;99.90;;;-0.08;100.00;98880.63;5072468;28;20495;-77
2021/11/11 06:35:37;;;;;;;11.10;6.30;;;-0.90;99.90;;;-0.07;100.00;98882.31;5064940;28;20524;-77
2021/11/11 06:38:06;;;;;;;7.50;5.70;;;-0.90;99.90;;;-0.17;100.00;98897.47;5068653;28;20444;-77
2021/11/11 06:40:35;;;;;;;9.37;5.67;;;-1.00;99.90;;;-0.21;100.00;98896.00;5068974;28;20502;-77
2021/11/11 06:43:06;;;;;;;9.37;5.70;;;-0.80;99.90;;;-0.21;100.00;98893.44;5071053;28;20560;-77
2021/11/11 06:45:40;;;;;;;10.00;5.80;;;-1.00;99.90;;;-0.18;100.00;98902.72;5070946;28;20444;-77
2021/11/11 06:48:10;;;;;;;9.80;4.90;;;-1.00;99.90;;;-0.23;100.00;98900.44;5069883;28;20432;-77
2021/11/11 06:50:41;;;;;;;9.87;6.03;;;-1.00;99.90;;;-0.24;100.00;98900.53;5068620;28;20570;-77
2021/11/11 06:53:14;;;;;;;9.63;5.70;;;-1.10;99.90;;;-0.24;100.00;98895.38;5072216;28;20881;-77
2021/11/11 06:55:44;;;;;;;10.57;5.63;;;-1.10;99.90;;;-0.22;100.00;98904.66;5067945;28;20444;-77
2021/11/11 06:58:17;;;;;;;10.60;5.93;;;-1.10;99.90;;;-0.23;100.00;98902.19;5065374;28;20470;-77
2021/11/11 07:00:45;;;;;;;11.13;6.00;;;-1.20;99.90;;;-0.20;100.00;98896.84;5067662;28;20475;-77
2021/11/11 07:03:14;;;;;;;10.03;6.00;;;-1.10;99.90;;;-0.23;100.00;98897.03;5061139;28;20997;-77
2021/11/11 07:05:44;;;;;;;10.10;6.10;;;-1.10;99.90;;;-0.24;100.00;98903.91;5069390;28;20812;-77
2021/11/11 07:08:14;;;;;;;11.00;5.60;;;-1.10;99.90;;;-0.22;100.00;98903.84;5062397;28;20449;-77
2021/11/11 07:10:46;;;;;;;10.53;5.90;;;-1.00;99.90;;;-0.18;100.00;98911.25;5063738;28;20440;-77
2021/11/11 07:13:18;;;;;;;8.50;5.80;;;-1.00;99.90;;;-0.16;100.00;98917.13;5067549;28;20436;-77
2021/11/11 07:15:46;;;;;;;8.00;6.10;;;-1.00;99.90;;;-0.16;100.00;98918.84;5067017;28;20842;-77
2021/11/11 07:18:16;;;;;;;13.43;6.03;;;-1.00;99.90;;;-0.18;100.00;98918.13;5066877;28;20453;-77
2021/11/11 07:20:46;;;;;;;10.97;6.47;;;-0.90;99.90;;;-0.21;100.00;98913.19;5065510;28;20864;-76
2021/11/11 07:23:19;;;;;;;16.63;6.13;;;-1.00;99.90;;;-0.17;100.00;98914.63;5066040;28;20514;-76
2021/11/11 07:25:48;;;;;;;12.47;7.10;;;-1.00;99.90;;;-0.18;100.00;98910.44;5061493;28;20835;-77
2021/11/11 07:28:18;;;;;;;12.83;7.40;;;-0.90;99.90;;;-0.20;100.00;98917.41;5065700;28;20457;-76
2021/11/11 07:30:49;;;;;;;11.67;5.93;;;-1.00;99.90;;;-0.15;100.00;98925.66;5065203;28;20448;-77
2021/11/11 07:33:18;;;;;;;9.97;6.30;;;-0.90;99.90;;;-0.12;100.00;98923.72;5061122;28;20489;-77
2021/11/11 07:35:47;;;;;;;9.97;6.10;;;-0.90;99.90;;;-0.09;100.00;98930.38;5066221;28;20467;-77
2021/11/11 07:38:18;;;;;;;9.50;6.03;;;-0.80;99.90;;;-0.12;100.00;98928.84;5066472;28;20440;-76
2021/11/11 07:40:47;;;;;;;16.23;6.43;;;-0.90;99.90;;;-0.08;100.00;98932.03;5064714;28;20536;-77
2021/11/11 07:43:17;;;;;;;8.17;5.90;;;-0.80;99.90;;;-0.07;100.00;98931.13;5068657;28;20488;-77
2021/11/11 07:45:46;;;;;;;11.80;6.00;;;-0.90;99.90;;;-0.07;100.00;98924.22;5070604;28;20494;-77
2021/11/11 07:48:15;;;;;;;9.27;5.40;;;-0.90;99.90;;;-0.06;100.00;98931.00;5068978;28;20468;-77
2021/11/11 07:50:45;;;;;;;11.73;6.47;;;-0.90;99.90;;;-0.08;100.00;98932.88;5070970;28;20494;-77
2021/11/11 07:53:13;;;;;;;13.37;6.83;;;-0.90;99.90;;;-0.02;100.00;98931.63;5069610;28;20844;-77
2021/11/11 07:55:43;;;;;;;9.20;5.80;;;-0.80;99.90;;;-0.03;100.00;98935.13;5063049;28;20498;-77
2021/11/11 07:58:12;;;;;;;9.30;5.80;;;-0.80;99.90;;;-0.02;100.00;98934.22;5068254;28;20459;-77
2021/11/11 08:00:42;;;;;;;9.37;5.93;;;-0.70;99.90;;;0.00;100.00;98935.75;5066835;28;20505;-77
2021/11/11 08:03:28;;;;;;;12.17;7.00;;;-0.80;99.90;;;0.02;100.00;98937.41;5065562;28;20498;-77
2021/11/11 08:06:05;;;;;;;9.93;6.40;;;-0.80;99.90;;;0.05;100.00;98935.47;5066395;28;20542;-77
2021/11/11 08:08:42;;;;;;;9.83;5.80;;;-0.60;99.90;;;0.05;100.00;98938.03;5064438;28;20451;-77
2021/11/11 08:11:32;;;;;;;10.33;5.67;;;-0.70;99.90;;;0.08;100.00;98937.81;5067026;28;20444;-77
2021/11/11 08:14:17;;;;;;;9.20;5.40;;;-0.70;99.90;;;0.13;100.00;98940.94;5067961;28;20436;-77
2021/11/11 08:17:17;;;;;;;12.07;5.60;;;-0.60;99.90;;;0.14;100.00;98931.47;5034650;28;20562;-77
2021/11/11 08:19:47;;;;;;;9.33;5.50;;;-0.60;99.90;;;0.13;100.00;98934.97;5070296;28;20453;-77
2021/11/11 08:22:15;;;;;;;10.03;5.20;;;-0.60;99.90;;;0.20;100.00;98931.91;5067323;28;20499;-77
2021/11/11 08:24:45;;;;;;;8.87;5.60;;;-0.60;99.90;;;0.22;100.00;98924.91;5060070;28;20908;-77
2021/11/11 08:27:16;;;;;;;8.13;5.50;;;-0.60;99.90;;;0.23;100.00;98916.28;5068342;28;20453;-77
2021/11/11 08:29:48;;;;;;;11.70;5.60;;;-0.40;99.90;;;0.27;100.00;98909.19;5065522;28;21321;-77
2021/11/11 08:32:20;;;;;;;8.73;5.33;;;-0.20;99.90;;;0.28;100.00;98914.19;5071570;28;20498;-77
2021/11/11 08:34:52;;;;;;;9.70;6.10;;;-0.40;99.90;;;0.29;100.00;98923.56;5066375;28;20449;-77
2021/11/11 08:37:22;;;;;;;10.07;6.00;;;-0.40;99.90;;;0.32;100.00;98927.69;5067613;28;20472;-77
2021/11/11 08:39:51;;;;;;;9.67;5.60;;;-0.30;99.90;;;0.34;100.00;98921.53;5070199;28;20445;-77
2021/11/11 08:42:20;;;;;;;12.33;6.60;;;-0.30;99.90;;;0.37;100.00;98913.63;5071151;28;20783;-77
2021/11/11 08:44:51;;;;;;;7.60;5.03;;;-0.20;99.90;;;0.40;100.00;98912.59;5067208;28;20484;-77
2021/11/11 08:47:22;;;;;;;10.20;4.30;;;-0.20;99.90;;;0.41;100.00;98915.06;5069008;28;21357;-77
2021/11/11 08:49:56;;;;;;;12.13;6.47;;;-0.20;99.90;;;0.45;100.00;98913.91;5057894;28;20457;-77
2021/11/11 08:52:27;;;;;;;7.80;4.90;;;-0.20;99.90;;;0.49;100.00;98906.81;5071061;28;20536;-77
2021/11/11 08:54:56;;;;;;;9.13;5.57;;;-0.20;99.90;;;0.55;100.00;98905.59;5072757;28;20445;-77
2021/11/11 08:57:25;;;;;;;14.30;5.53;;;-0.10;99.90;;;0.58;100.00;98901.06;5076492;28;20835;-77
2021/11/11 09:00:08;;;;;;;14.20;6.40;;;0.10;99.90;;;0.62;100.00;98901.69;5066896;28;20442;-77
2021/11/11 09:02:39;;;;;;;10.70;6.00;;;0.00;99.90;;;0.66;100.00;98908.28;5068648;28;20478;-77
2021/11/11 09:05:09;;;;;;;13.37;5.63;;;0.00;99.90;;;0.68;100.00;98902.09;5061653;28;20488;-77
2021/11/11 09:07:39;;;;;;;9.87;6.10;;;0.00;99.90;;;0.70;100.00;98904.53;5072303;28;20471;-77
2021/11/11 09:10:14;;;;;;;11.53;5.50;;;0.00;99.90;;;0.75;100.00;98913.63;5060584;28;20462;-77
2021/11/11 09:12:43;;;;;;;9.47;6.80;;;0.10;99.90;;;0.81;100.00;98917.50;5068100;28;20499;-77
2021/11/11 09:15:14;;;;;;;10.63;5.67;;;0.20;99.90;;;0.85;100.00;98924.09;5078345;28;20470;-77
2021/11/11 09:17:46;;;;;;;8.90;6.07;;;0.30;99.90;;;0.87;100.00;98924.81;5061494;28;20454;-77
2021/11/11 09:20:16;;;;;;;7.63;5.43;;;0.20;99.90;;;0.88;100.00;98929.03;5065568;28;20441;-77
2021/11/11 09:22:46;;;;;;;11.40;6.20;;;0.20;99.90;;;0.90;100.00;98927.19;5071398;28;20811;-77
2021/11/11 09:25:16;;;;;;;14.07;6.93;;;0.20;99.90;;;0.93;100.00;98932.13;5063772;28;20510;-77
2021/11/11 09:27:46;;;;;;;9.17;6.40;;;0.20;99.90;;;0.96;100.00;98934.50;5065742;28;20458;-77
2021/11/11 09:30:23;;;;;;;11.20;6.50;;;0.20;99.90;;;1.03;100.00;98928.00;5067935;28;21002;-77
2021/11/11 09:32:54;;;;;;;8.83;5.57;;;0.30;99.90;;;1.08;100.00;98935.41;5068366;28;20459;-77
2021/11/11 09:35:24;;;;;;;13.70;5.53;;;0.30;99.90;;;1.07;100.00;98939.72;5070662;28;20479;-77
2021/11/11 09:37:54;;;;;;;11.57;5.47;;;0.30;99.90;;;1.12;100.00;98942.78;5062386;28;20445;-77
2021/11/11 09:40:27;;;;;;;9.10;5.90;;;0.40;99.90;;;1.19;100.00;98950.91;5060176;28;20454;-77
2021/11/11 09:42:57;;;;;;;10.63;5.30;;;0.50;99.90;;;1.23;100.00;98955.75;5066880;28;20446;-77
2021/11/11 09:45:33;;;;;;;9.23;6.00;;;0.60;99.90;;;1.25;100.00;98948.75;5065749;28;20490;-77
2021/11/11 09:48:06;;;;;;;8.90;5.60;;;0.60;99.90;;;1.28;100.00;98943.41;5066325;28;20443;-77
2021/11/11 09:50:37;;;;;;;23.47;5.90;;;0.70;99.90;;;1.34;100.00;98945.53;5073815;28;20949;-77
2021/11/11 09:53:09;;;;;;;12.87;6.10;;;0.70;99.90;;;1.40;100.00;98946.84;5067214;28;20515;-77
2021/11/11 09:58:41;;;;;;;8.70;5.83;;;0.80;99.90;;;1.52;100.00;98949.41;5061161;28;20455;-77
2021/11/11 10:01:16;;;;;;;7.90;5.57;;;0.90;99.90;;;1.58;100.00;98947.31;5061703;28;20484;-77
2021/11/11 10:03:52;;;;;;;11.17;5.57;;;0.90;99.90;;;1.63;100.00;98950.41;5074701;28;20478;-77
2021/11/11 10:06:24;;;;;;;11.30;6.73;;;1.00;99.90;;;1.65;100.00;98956.25;5072598;28;20445;-77
2021/11/11 10:08:56;;;;;;;12.33;7.57;;;1.00;99.90;;;1.69;100.00;98947.38;5063891;28;20450;-77
2021/11/11 10:11:33;;;;;;;8.77;5.63;;;1.10;99.90;;;1.75;100.00;98946.94;5068042;28;20442;-77
2021/11/11 10:14:09;;;;;;;14.63;6.60;;;1.20;99.90;;;1.82;100.00;98959.28;5072664;28;20979;-77
2021/11/11 10:16:43;;;;;;;14.73;7.43;;;1.20;99.90;;;1.87;100.00;98962.38;5069255;28;20449;-77
2021/11/11 10:19:15;;;;;;;8.57;5.77;;;1.30;99.90;;;1.91;100.00;98952.63;5069600;28;20924;-77
2021/11/11 10:21:48;;;;;;;20.10;10.63;;;1.30;99.90;;;1.93;100.00;98951.63;5071781;28;20447;-77
2021/11/11 10:24:43;;;;;;;20.40;11.00;;;1.30;99.90;;;1.98;100.00;98941.78;5062055;28;20494;-77
2021/11/11 10:27:24;;;;;;;25.30;11.10;;;1.30;99.90;;;1.98;100.00;98944.34;5065983;28;20454;-77
2021/11/11 10:30:02;;;;;;;26.27;13.37;;;1.30;99.90;;;2.01;100.00;98936.38;5070559;28;20437;-77
2021/11/11 10:32:36;;;;;;;19.00;9.90;;;1.30;99.90;;;2.10;100.00;98937.50;5069479;28;20450;-78
2021/11/11 10:35:10;;;;;;;17.43;8.70;;;1.40;99.90;;;2.19;100.00;98935.97;5070877;28;20442;-77
2021/11/11 10:37:47;;;;;;;16.77;8.80;;;1.60;99.90;;;2.25;100.00;98933.81;5062213;28;20458;-77
2021/11/11 10:40:20;;;;;;;20.63;9.13;;;1.60;99.90;;;2.31;100.00;98929.94;5072125;28;20512;-77
2021/11/11 10:42:53;;;;;;;12.73;7.63;;;1.70;99.90;;;2.40;100.00;98931.81;5077624;28;20933;-78
2021/11/11 10:45:26;;;;;;;18.40;7.90;;;1.80;99.90;;;2.44;100.00;98926.31;5068846;28;20574;-77
2021/11/11 10:47:58;;;;;;;16.83;8.00;;;1.90;99.90;;;2.48;100.00;98925.16;5069612;28;20523;-77